GCHAR EGHJ-EGHP
Flight info
| Callsign | GCHAR |
|---|---|
| Flight time | 0h 35m |
| Altitude | 1800 |
| Route | EGHJ SPINIKER TWR VRP BUSTER HILL MAST VRP NEW ARLESFORD VRP EGHP |
| Aircraft | C172/L-S/N |
Departure
| Time | 2026-05-06 14:45 |
|---|---|
| Airport | Bembridge Airport (EGHJ) |
Arrival
| Time | 2026-05-06 15:21 |
|---|---|
| Airport | Popham Airfield (EGHP) |
| Time | Latitude | Longitude | Altitude | Speed | Heading |
|---|---|---|---|---|---|
| 2026-05-06 14:35 | 50.67894 | -1.10518 | 57 ft | 0 kts | 269° |
| 2026-05-06 14:40 | 50.67905 | -1.10516 | 57 ft | 4 kts | 75° |
| 2026-05-06 14:41 | 50.67891 | -1.10468 | 57 ft | 6 kts | 127° |
| 2026-05-06 14:41 | 50.67875 | -1.10437 | 57 ft | 5 kts | 129° |
| 2026-05-06 14:41 | 50.67857 | -1.10417 | 57 ft | 4 kts | 195° |
| 2026-05-06 14:41 | 50.67830 | -1.10445 | 57 ft | 7 kts | 211° |
| 2026-05-06 14:42 | 50.67798 | -1.10457 | 57 ft | 5 kts | 150° |
| 2026-05-06 14:42 | 50.67744 | -1.10444 | 57 ft | 9 kts | 181° |
| 2026-05-06 14:42 | 50.67697 | -1.10450 | 57 ft | 7 kts | 187° |
| 2026-05-06 14:42 | 50.67664 | -1.10456 | 57 ft | 0 kts | 187° |
| 2026-05-06 14:43 | 50.67643 | -1.10462 | 57 ft | 4 kts | 200° |
| 2026-05-06 14:44 | 50.67639 | -1.10491 | 57 ft | 6 kts | 294° |
| 2026-05-06 14:44 | 50.67727 | -1.10743 | 57 ft | 52 kts | 297° |
| 2026-05-06 14:44 | 50.67931 | -1.11392 | 152 ft | 72 kts | 300° |
| 2026-05-06 14:45 | 50.68447 | -1.12904 | 490 ft | 86 kts | 300° |
| 2026-05-06 14:45 | 50.68719 | -1.13750 | 671 ft | 87 kts | 301° |
| 2026-05-06 14:45 | 50.69068 | -1.14507 | 836 ft | 85 kts | 323° |
| 2026-05-06 14:45 | 50.69601 | -1.14902 | 971 ft | 87 kts | 346° |
| 2026-05-06 14:46 | 50.70235 | -1.14977 | 1017 ft | 97 kts | 3° |
| 2026-05-06 14:46 | 50.70931 | -1.14742 | 1019 ft | 106 kts | 12° |
| 2026-05-06 14:46 | 50.71625 | -1.14459 | 1145 ft | 100 kts | 12° |
| 2026-05-06 14:46 | 50.72283 | -1.14194 | 1296 ft | 95 kts | 9° |
| 2026-05-06 14:47 | 50.72916 | -1.13968 | 1449 ft | 92 kts | 11° |
| 2026-05-06 14:47 | 50.73532 | -1.13777 | 1605 ft | 89 kts | 7° |
| 2026-05-06 14:47 | 50.74132 | -1.13582 | 1739 ft | 89 kts | 11° |
| 2026-05-06 14:47 | 50.74746 | -1.13326 | 1805 ft | 95 kts | 12° |
| 2026-05-06 14:48 | 50.75407 | -1.13032 | 1812 ft | 103 kts | 13° |
| 2026-05-06 14:48 | 50.76102 | -1.12677 | 1804 ft | 107 kts | 16° |
| 2026-05-06 14:48 | 50.76820 | -1.12305 | 1800 ft | 110 kts | 16° |
| 2026-05-06 14:48 | 50.77538 | -1.11885 | 1798 ft | 110 kts | 18° |
| 2026-05-06 14:49 | 50.78253 | -1.11437 | 1797 ft | 111 kts | 19° |
| 2026-05-06 14:49 | 50.78965 | -1.10982 | 1797 ft | 111 kts | 19° |
| 2026-05-06 14:49 | 50.79677 | -1.10488 | 1798 ft | 111 kts | 21° |
| 2026-05-06 14:49 | 50.80378 | -1.09960 | 1798 ft | 111 kts | 21° |
| 2026-05-06 14:50 | 50.81075 | -1.09424 | 1797 ft | 112 kts | 22° |
| 2026-05-06 14:50 | 50.81774 | -1.08893 | 1797 ft | 112 kts | 23° |
| 2026-05-06 14:50 | 50.82466 | -1.08330 | 1797 ft | 112 kts | 25° |
| 2026-05-06 14:50 | 50.83147 | -1.07747 | 1797 ft | 112 kts | 25° |
| 2026-05-06 14:51 | 50.83829 | -1.07152 | 1797 ft | 112 kts | 25° |
| 2026-05-06 14:51 | 50.84508 | -1.06539 | 1797 ft | 112 kts | 26° |
| 2026-05-06 14:51 | 50.85181 | -1.05926 | 1797 ft | 112 kts | 26° |
| 2026-05-06 14:51 | 50.85858 | -1.05313 | 1797 ft | 112 kts | 25° |
| 2026-05-06 14:52 | 50.86534 | -1.04707 | 1797 ft | 112 kts | 26° |
| 2026-05-06 14:52 | 50.87213 | -1.04104 | 1797 ft | 112 kts | 25° |
| 2026-05-06 14:52 | 50.87896 | -1.03509 | 1797 ft | 112 kts | 26° |
| 2026-05-06 14:52 | 50.88579 | -1.02929 | 1797 ft | 112 kts | 23° |
| 2026-05-06 14:53 | 50.89279 | -1.02395 | 1797 ft | 111 kts | 21° |
| 2026-05-06 14:53 | 50.89994 | -1.01927 | 1797 ft | 111 kts | 18° |
| 2026-05-06 14:53 | 50.90712 | -1.01480 | 1797 ft | 111 kts | 18° |
| 2026-05-06 14:53 | 50.91438 | -1.01068 | 1797 ft | 111 kts | 16° |
| 2026-05-06 14:54 | 50.92173 | -1.00694 | 1797 ft | 111 kts | 14° |
| 2026-05-06 14:54 | 50.92909 | -1.00341 | 1797 ft | 111 kts | 14° |
| 2026-05-06 14:54 | 50.93433 | -1.00088 | 1797 ft | 111 kts | 15° |
| 2026-05-06 14:54 | 50.94171 | -0.99745 | 1797 ft | 110 kts | 12° |
| 2026-05-06 14:55 | 50.94917 | -0.99460 | 1797 ft | 110 kts | 12° |
| 2026-05-06 14:55 | 50.95658 | -0.99129 | 1797 ft | 111 kts | 13° |
| 2026-05-06 14:55 | 50.96401 | -0.98818 | 1797 ft | 111 kts | 12° |
| 2026-05-06 14:55 | 50.97058 | -0.98535 | 1797 ft | 111 kts | 13° |
| 2026-05-06 14:56 | 50.97690 | -0.98386 | 1795 ft | 110 kts | 358° |
| 2026-05-06 14:56 | 50.98416 | -0.98715 | 1798 ft | 110 kts | 333° |
| 2026-05-06 14:56 | 50.99034 | -0.99424 | 1800 ft | 110 kts | 321° |
| 2026-05-06 14:56 | 50.99600 | -1.00250 | 1798 ft | 111 kts | 319° |
| 2026-05-06 14:57 | 51.00155 | -1.01103 | 1797 ft | 111 kts | 318° |
| 2026-05-06 14:57 | 51.00707 | -1.01963 | 1797 ft | 111 kts | 319° |
| 2026-05-06 14:57 | 51.01259 | -1.02819 | 1797 ft | 111 kts | 318° |
| 2026-05-06 14:57 | 51.01808 | -1.03682 | 1797 ft | 111 kts | 317° |
| 2026-05-06 14:58 | 51.02358 | -1.04541 | 1797 ft | 111 kts | 319° |
| 2026-05-06 14:58 | 51.02914 | -1.05391 | 1797 ft | 111 kts | 319° |
| 2026-05-06 14:58 | 51.03475 | -1.06230 | 1797 ft | 111 kts | 320° |
| 2026-05-06 14:58 | 51.04044 | -1.07056 | 1797 ft | 111 kts | 320° |
| 2026-05-06 14:59 | 51.04601 | -1.07902 | 1797 ft | 111 kts | 317° |
| 2026-05-06 14:59 | 51.05143 | -1.08776 | 1797 ft | 111 kts | 319° |
| 2026-05-06 14:59 | 51.05716 | -1.09597 | 1797 ft | 111 kts | 321° |
| 2026-05-06 14:59 | 51.06293 | -1.10404 | 1797 ft | 111 kts | 322° |
| 2026-05-06 15:00 | 51.06875 | -1.11204 | 1797 ft | 111 kts | 320° |
| 2026-05-06 15:00 | 51.07439 | -1.12038 | 1797 ft | 111 kts | 320° |
| 2026-05-06 15:00 | 51.08011 | -1.12862 | 1797 ft | 111 kts | 321° |
| 2026-05-06 15:00 | 51.08584 | -1.13679 | 1797 ft | 111 kts | 320° |
| 2026-05-06 15:01 | 51.09123 | -1.14559 | 1798 ft | 111 kts | 315° |
| 2026-05-06 15:01 | 51.09636 | -1.15483 | 1798 ft | 111 kts | 314° |
| 2026-05-06 15:01 | 51.10137 | -1.16425 | 1797 ft | 112 kts | 313° |
| 2026-05-06 15:01 | 51.10618 | -1.17394 | 1797 ft | 112 kts | 312° |
| 2026-05-06 15:02 | 51.11150 | -1.18284 | 1797 ft | 111 kts | 320° |
| 2026-05-06 15:02 | 51.11731 | -1.19089 | 1797 ft | 111 kts | 321° |
| 2026-05-06 15:02 | 51.12143 | -1.19570 | 1797 ft | 110 kts | 330° |
| 2026-05-06 15:02 | 51.13034 | -1.20353 | 1798 ft | 110 kts | 333° |
| 2026-05-06 15:03 | 51.13716 | -1.20894 | 1797 ft | 110 kts | 337° |
| 2026-05-06 15:03 | 51.14420 | -1.21386 | 1728 ft | 112 kts | 336° |
| 2026-05-06 15:03 | 51.15131 | -1.21943 | 1568 ft | 115 kts | 333° |
| 2026-05-06 15:03 | 51.15854 | -1.22481 | 1405 ft | 115 kts | 339° |
| 2026-05-06 15:04 | 51.16597 | -1.22950 | 1265 ft | 113 kts | 339° |
| 2026-05-06 15:04 | 51.17278 | -1.23350 | 1190 ft | 97 kts | 342° |
| 2026-05-06 15:04 | 51.17905 | -1.23581 | 1179 ft | 89 kts | 354° |
| 2026-05-06 15:04 | 51.18511 | -1.23579 | 1189 ft | 86 kts | 5° |
| 2026-05-06 15:05 | 51.19090 | -1.23348 | 1195 ft | 85 kts | 14° |
| 2026-05-06 15:05 | 51.19660 | -1.23116 | 1196 ft | 84 kts | 9° |
| 2026-05-06 15:05 | 51.20238 | -1.22976 | 1196 ft | 84 kts | 5° |
| 2026-05-06 15:05 | 51.20827 | -1.23036 | 1133 ft | 88 kts | 343° |
| 2026-05-06 15:06 | 51.21254 | -1.23709 | 1096 ft | 90 kts | 296° |
| 2026-05-06 15:06 | 51.21252 | -1.24704 | 1095 ft | 93 kts | 259° |
| 2026-05-06 15:06 | 51.21088 | -1.25646 | 1101 ft | 84 kts | 259° |
| 2026-05-06 15:06 | 51.20935 | -1.26513 | 1085 ft | 79 kts | 262° |
| 2026-05-06 15:07 | 51.20811 | -1.27346 | 1086 ft | 77 kts | 263° |
| 2026-05-06 15:07 | 51.20667 | -1.28182 | 1101 ft | 81 kts | 254° |
| 2026-05-06 15:07 | 51.20250 | -1.28848 | 1037 ft | 94 kts | 204° |
| 2026-05-06 15:07 | 51.19618 | -1.28739 | 984 ft | 97 kts | 147° |
| 2026-05-06 15:08 | 51.19295 | -1.27881 | 863 ft | 87 kts | 87° |
| 2026-05-06 15:08 | 51.19530 | -1.27067 | 757 ft | 81 kts | 62° |
| 2026-05-06 15:08 | 51.19655 | -1.26161 | 781 ft | 90 kts | 81° |
| 2026-05-06 15:08 | 51.19720 | -1.25198 | 909 ft | 85 kts | 66° |
| 2026-05-06 15:09 | 51.20137 | -1.24627 | 946 ft | 84 kts | 8° |
| 2026-05-06 15:09 | 51.20617 | -1.25048 | 961 ft | 86 kts | 304° |
| 2026-05-06 15:09 | 51.20638 | -1.26048 | 890 ft | 100 kts | 257° |
| 2026-05-06 15:09 | 51.20432 | -1.27059 | 940 ft | 94 kts | 256° |
| 2026-05-06 15:10 | 51.20202 | -1.27999 | 1037 ft | 90 kts | 243° |
| 2026-05-06 15:10 | 51.19644 | -1.28485 | 1046 ft | 102 kts | 183° |
| 2026-05-06 15:10 | 51.19239 | -1.28131 | 965 ft | 105 kts | 121° |
| 2026-05-06 15:10 | 51.19306 | -1.27096 | 899 ft | 94 kts | 66° |
| 2026-05-06 15:11 | 51.19415 | -1.26017 | 804 ft | 102 kts | 84° |
| 2026-05-06 15:11 | 51.19624 | -1.25110 | 753 ft | 78 kts | 54° |
| 2026-05-06 15:11 | 51.19827 | -1.24307 | 796 ft | 82 kts | 65° |
| 2026-05-06 15:11 | 51.20050 | -1.23482 | 975 ft | 84 kts | 59° |
| 2026-05-06 15:12 | 51.20444 | -1.22757 | 1113 ft | 89 kts | 27° |
| 2026-05-06 15:12 | 51.21064 | -1.22661 | 1193 ft | 94 kts | 340° |
| 2026-05-06 15:12 | 51.21473 | -1.23473 | 1252 ft | 102 kts | 292° |
| 2026-05-06 15:12 | 51.21440 | -1.24669 | 1202 ft | 114 kts | 259° |
| 2026-05-06 15:13 | 51.21200 | -1.25847 | 1194 ft | 109 kts | 256° |
| 2026-05-06 15:13 | 51.20953 | -1.26945 | 1270 ft | 101 kts | 256° |
| 2026-05-06 15:13 | 51.20705 | -1.27953 | 1323 ft | 94 kts | 254° |
| 2026-05-06 15:13 | 51.20438 | -1.28926 | 1264 ft | 95 kts | 251° |
| 2026-05-06 15:14 | 51.19921 | -1.29598 | 1165 ft | 106 kts | 196° |
| 2026-05-06 15:14 | 51.19259 | -1.29271 | 1013 ft | 99 kts | 123° |
| 2026-05-06 15:14 | 51.19194 | -1.28309 | 841 ft | 84 kts | 76° |
| 2026-05-06 15:14 | 51.19277 | -1.27444 | 795 ft | 72 kts | 79° |
| 2026-05-06 15:15 | 51.19267 | -1.26629 | 719 ft | 75 kts | 84° |
| 2026-05-06 15:15 | 51.19310 | -1.25836 | 735 ft | 69 kts | 79° |
| 2026-05-06 15:15 | 51.19375 | -1.25014 | 804 ft | 82 kts | 74° |
| 2026-05-06 15:15 | 51.19489 | -1.24016 | 766 ft | 94 kts | 78° |
| 2026-05-06 15:16 | 51.19587 | -1.23019 | 921 ft | 89 kts | 76° |
| 2026-05-06 15:16 | 51.19843 | -1.22134 | 935 ft | 102 kts | 21° |
| 2026-05-06 15:16 | 51.20444 | -1.21847 | 1302 ft | 81 kts | 13° |
| 2026-05-06 15:16 | 51.21068 | -1.21777 | 1307 ft | 101 kts | 354° |
| 2026-05-06 15:17 | 51.21701 | -1.22350 | 1300 ft | 112 kts | 313° |
| 2026-05-06 15:17 | 51.21933 | -1.23521 | 1298 ft | 116 kts | 272° |
| 2026-05-06 15:17 | 51.21725 | -1.24776 | 1307 ft | 117 kts | 258° |
| 2026-05-06 15:17 | 51.21463 | -1.26016 | 1299 ft | 118 kts | 256° |
| 2026-05-06 15:18 | 51.21228 | -1.27246 | 1295 ft | 115 kts | 258° |
| 2026-05-06 15:18 | 51.20990 | -1.28450 | 1295 ft | 112 kts | 259° |
| 2026-05-06 15:18 | 51.20765 | -1.29575 | 1268 ft | 103 kts | 253° |
| 2026-05-06 15:18 | 51.20238 | -1.30323 | 1180 ft | 107 kts | 194° |
| 2026-05-06 15:19 | 51.19607 | -1.29914 | 1178 ft | 97 kts | 127° |
| 2026-05-06 15:19 | 51.19188 | -1.29130 | 1205 ft | 91 kts | 122° |
| 2026-05-06 15:19 | 51.19019 | -1.28215 | 1150 ft | 86 kts | 72° |
| 2026-05-06 15:19 | 51.19196 | -1.27357 | 1159 ft | 83 kts | 69° |
| 2026-05-06 15:20 | 51.19238 | -1.26395 | 986 ft | 82 kts | 92° |
| 2026-05-06 15:20 | 51.19149 | -1.25544 | 835 ft | 76 kts | 92° |
| 2026-05-06 15:20 | 51.19153 | -1.24754 | 673 ft | 64 kts | 78° |
| 2026-05-06 15:20 | 51.19244 | -1.24113 | 554 ft | 53 kts | 69° |
| 2026-05-06 15:21 | 51.19306 | -1.23760 | 554 ft | 16 kts | 73° |
| 2026-05-06 15:21 | 51.19320 | -1.23657 | 554 ft | 12 kts | 77° |
| 2026-05-06 15:21 | 51.19344 | -1.23531 | 554 ft | 10 kts | 35° |
| 2026-05-06 15:21 | 51.19369 | -1.23537 | 554 ft | 5 kts | 272° |
| 2026-05-06 15:22 | 51.19366 | -1.23558 | 554 ft | 0 kts | 251° |
| 2026-05-06 15:22 | 51.19376 | -1.23604 | 554 ft | 2 kts | 302° |
| 2026-05-06 15:22 | 51.19377 | -1.23629 | 554 ft | 2 kts | 149° |
| 2026-05-06 15:22 | 51.19376 | -1.23628 | 554 ft | 0 kts | 144° |
| 2026-05-06 15:24 | 51.19373 | -1.23627 | 554 ft | 3 kts | 184° |
| 2026-05-06 15:24 | 51.19360 | -1.23680 | 554 ft | 8 kts | 251° |
| 2026-05-06 15:24 | 51.19349 | -1.23760 | 554 ft | 7 kts | 264° |
| 2026-05-06 15:24 | 51.19367 | -1.23809 | 554 ft | 3 kts | 270° |
| 2026-05-06 15:25 | 51.19366 | -1.23827 | 554 ft | 0 kts | 263° |
| 2026-05-06 15:25 | 51.19365 | -1.23833 | 554 ft | 0 kts | 256° |
| 2026-05-06 15:25 | 51.19363 | -1.23845 | 554 ft | 3 kts | 255° |
| 2026-05-06 15:25 | 51.19351 | -1.23871 | 554 ft | 4 kts | 193° |
| 2026-05-06 15:26 | 51.19342 | -1.23801 | 554 ft | 11 kts | 77° |
| 2026-05-06 15:26 | 51.19355 | -1.23703 | 554 ft | 6 kts | 77° |
| 2026-05-06 15:26 | 51.19363 | -1.23645 | 554 ft | 1 kts | 77° |
| 2026-05-06 15:26 | 51.19380 | -1.23620 | 554 ft | 2 kts | 331° |
| 2026-05-06 15:27 | 51.19377 | -1.23631 | 554 ft | 0 kts | 159° |